< < Back
Terminal Aerodrome Forecast


Current Version              Previous Versions:   1  2  3  4  5  6  7  8  9  

Terminal Aerodrome Forecast

152
FTUS44 KBMX 220700 AAA
TAFMGM
TAF AMD
KMGM 220738Z 2208/2306 00000KT 4SM BR SKC
      TEMPO 2208/2212 2SM BR
     FM221300 01005KT P6SM SKC=

Latest METAR

809
SAUS80 KWBC 230600 RRA
MTRMGM
METAR KMGM 230553Z AUTO 03004KT 10SM CLR 12/07 A3010 RMK AO2 SLP192
T01170067 10161 20117 402330094 58006


USA.gov is the U.S. government's official web portal to all federal, state and local government web resources and services.